»·PEaware :: GBAFM KSBA-KBUR

GBAFM :: KSBA-KBUR

FLIGHT INFORMATION

Flight Status: Arrived
Operator: Unknown
More flights by this operator :: More flights under this callsign
Pilot: Phil D. (20855)
Aircraft: CESSNA 172 SKYHAWK
(C172)
More flights by this aircraft type
Origin: KSBA Santa Barbara Mun
United States
Destination: KBUR Bob Hope-Burbank
United States
More flights between these airports :: More routes between these airports
Route: COASTAL VIA CAMARILLO
File this flight plan on PilotEdge
Remarks:
Altitude:
(Current/Filed)
5,500ft
Speed:
(Current/Filed)
90kts
Departed: 12-Jan-19 12:52 PM
Arrived: 12-Jan-19 01:42 PM
Distance/Time
Traveled:
75nm/0:50
Distance/Time
To Go:
Arrived

Flight Plot

Page will automatically refresh every two minutes.

Flight plan parsing failed; only flown route is shown


Map Options




Map Legend


Flown Route
Filed Route
Departure Airport
Arrival Airport
Navaid (VOR, NDB)
Fix

Horizontal Profiles

Position Reports

Time Latitude Longitude Heading Altitude Ground
Speed
12-Jan-19 12:40 34.432161 -119.835601 253 13ft 0kts
12-Jan-19 12:41 34.432161 -119.835602 253 13ft 0kts
12-Jan-19 12:42 34.432161 -119.835602 253 13ft 0kts
12-Jan-19 12:43 34.432161 -119.835602 253 13ft 0kts
12-Jan-19 12:44 34.432160 -119.835603 253 13ft 0kts
12-Jan-19 12:45 34.432160 -119.835603 253 13ft 0kts
12-Jan-19 12:46 34.432160 -119.835604 253 13ft 0kts
12-Jan-19 12:47 34.432160 -119.835604 253 13ft 0kts
12-Jan-19 12:48 34.432131 -119.835722 252 13ft 2kts
12-Jan-19 12:48 34.431214 -119.838164 252 13ft 18kts
12-Jan-19 12:49 34.430680 -119.839844 253 13ft 0kts
12-Jan-19 12:50 34.430522 -119.840215 209 13ft 13kts
12-Jan-19 12:51 34.415974 -119.836015 162 459ft 67kts
12-Jan-19 12:53 34.395047 -119.826786 155 1300ft 78kts
12-Jan-19 12:54 34.372696 -119.815452 160 1546ft 91kts
12-Jan-19 12:54 34.352986 -119.806087 156 2053ft 93kts
12-Jan-19 12:55 34.341769 -119.783381 52 2646ft 100kts
12-Jan-19 12:56 34.357965 -119.758742 48 3351ft 92kts
12-Jan-19 12:57 34.373178 -119.733078 42 3920ft 93kts
12-Jan-19 12:58 34.390193 -119.708809 43 4420ft 94kts
12-Jan-19 12:59 34.403976 -119.680784 67 4884ft 101kts
12-Jan-19 13:00 34.407233 -119.647151 86 5354ft 101kts
12-Jan-19 13:01 34.405876 -119.612508 94 5441ft 103kts
12-Jan-19 13:02 34.393549 -119.580704 118 5505ft 104kts
12-Jan-19 13:03 34.379174 -119.549730 118 5541ft 106kts
12-Jan-19 13:04 34.366757 -119.521033 118 5563ft 107kts
12-Jan-19 13:05 34.352484 -119.489318 117 5568ft 109kts
12-Jan-19 13:06 34.338736 -119.460635 118 5580ft 108kts
12-Jan-19 13:07 34.322349 -119.430042 125 5582ft 108kts
12-Jan-19 13:08 34.306201 -119.399327 121 5589ft 108kts
12-Jan-19 13:09 34.289227 -119.369248 121 5628ft 108kts
12-Jan-19 13:10 34.273164 -119.337515 121 5607ft 110kts
12-Jan-19 13:11 34.262510 -119.307291 106 5600ft 110kts
12-Jan-19 13:12 34.253010 -119.273421 104 5597ft 109kts
12-Jan-19 13:13 34.245776 -119.241281 102 5591ft 109kts
12-Jan-19 13:14 34.237867 -119.205708 101 5586ft 109kts
12-Jan-19 13:15 34.230788 -119.169830 101 5529ft 109kts
12-Jan-19 13:16 34.227560 -119.133779 82 5504ft 107kts
12-Jan-19 13:17 34.229161 -119.097549 86 5476ft 108kts
12-Jan-19 13:18 34.228558 -119.061106 89 5456ft 108kts
12-Jan-19 13:19 34.228122 -119.024748 81 5443ft 107kts
12-Jan-19 13:20 34.233531 -118.990175 42 5556ft 98kts
12-Jan-19 13:21 34.252821 -118.967047 40 5500ft 98kts
12-Jan-19 13:22 34.262875 -118.936355 91 5423ft 106kts
12-Jan-19 13:23 34.257188 -118.901350 93 5389ft 105kts
12-Jan-19 13:24 34.253229 -118.865725 95 5292ft 107kts
12-Jan-19 13:25 34.249398 -118.829973 92 5215ft 107kts
12-Jan-19 13:26 34.246771 -118.794181 91 5338ft 106kts
12-Jan-19 13:27 34.244372 -118.758422 90 5455ft 107kts
12-Jan-19 13:28 34.242359 -118.722517 91 5507ft 107kts
12-Jan-19 13:29 34.240004 -118.690423 91 5531ft 107kts
12-Jan-19 13:30 34.236549 -118.654558 98 5546ft 108kts
12-Jan-19 13:31 34.232235 -118.618699 91 5570ft 107kts
12-Jan-19 13:32 34.229358 -118.582738 92 5585ft 106kts
12-Jan-19 13:33 34.224815 -118.548513 96 5106ft 94kts
12-Jan-19 13:34 34.221020 -118.517378 94 4242ft 92kts
12-Jan-19 13:35 34.216909 -118.487211 105 3571ft 88kts
12-Jan-19 13:36 34.207882 -118.461425 111 2775ft 81kts
12-Jan-19 13:37 34.200590 -118.437566 100 2120ft 71kts
12-Jan-19 13:38 34.198430 -118.413874 88 1545ft 70kts
12-Jan-19 13:39 34.198168 -118.390194 89 1107ft 70kts
12-Jan-19 13:40 34.197903 -118.367104 89 728ft 57kts
12-Jan-19 13:41 34.197432 -118.360298 176 724ft 0kts
12-Jan-19 13:42 34.197290 -118.360286 175 724ft 0kts
12-Jan-19 13:43 34.195943 -118.360041 176 724ft 0kts
12-Jan-19 13:44 34.195942 -118.360041 176 724ft 0kts
12-Jan-19 13:45 34.195942 -118.360041 176 724ft 0kts
12-Jan-19 13:46 34.195942 -118.360041 176 724ft 0kts
12-Jan-19 13:47 34.195941 -118.360041 176 724ft 0kts
12-Jan-19 13:48 34.195941 -118.360041 176 724ft 0kts
12-Jan-19 13:49 34.195941 -118.360041 176 724ft 0kts
12-Jan-19 13:50 34.195941 -118.360041 176 724ft 0kts
12-Jan-19 13:51 34.195940 -118.360041 176 724ft 0kts
12-Jan-19 13:52 34.195940 -118.360041 176 724ft 0kts
12-Jan-19 13:53 34.195940 -118.360041 176 724ft 0kts
12-Jan-19 13:54 34.195939 -118.360041 176 724ft 0kts
12-Jan-19 13:55 34.195939 -118.360041 176 724ft 0kts
12-Jan-19 13:56 34.195938 -118.360041 176 724ft 0kts

Navigation Log

Ident Type
Flight plan parsing failed, navigation log unavailable